createdAt,value
2023-04-21T00:00:57.096Z,97.72
2023-04-21T00:03:28.345Z,98.12
2023-04-21T00:06:01.668Z,99.77
2023-04-21T00:08:31.457Z,100.00
2023-04-21T00:11:01.240Z,100.00
2023-04-21T00:13:31.054Z,100.00
2023-04-21T00:16:00.775Z,100.00
2023-04-21T00:18:30.614Z,100.00
2023-04-21T00:21:03.069Z,100.00
2023-04-21T00:23:32.848Z,100.00
2023-04-21T00:26:03.244Z,100.00
2023-04-21T00:28:33.156Z,100.00
2023-04-21T00:31:02.965Z,100.00
2023-04-21T00:33:32.795Z,100.00
2023-04-21T00:36:05.087Z,100.00
2023-04-21T00:38:34.849Z,100.00
2023-04-21T00:41:04.596Z,100.00
2023-04-21T00:43:34.358Z,100.00
2023-04-21T00:46:04.167Z,100.00
2023-04-21T00:48:34.624Z,100.00
2023-04-21T00:51:07.140Z,100.00
2023-04-21T00:53:37.834Z,100.00
2023-04-21T00:56:09.405Z,100.00
2023-04-21T00:58:41.707Z,100.00
2023-04-21T01:01:11.510Z,100.00
2023-04-21T01:03:41.484Z,100.00
2023-04-21T01:06:15.436Z,100.00
2023-04-21T01:08:45.650Z,100.00
2023-04-21T01:11:18.779Z,100.00
2023-04-21T01:13:48.522Z,100.00
2023-04-21T01:16:21.901Z,100.00
2023-04-21T01:18:52.228Z,100.00
2023-04-21T01:21:24.856Z,100.00
2023-04-21T01:23:57.557Z,100.00
2023-04-21T01:26:27.290Z,100.00
2023-04-21T01:28:59.935Z,100.00
2023-04-21T01:31:29.823Z,100.00
2023-04-21T01:33:59.637Z,100.00
2023-04-21T01:36:29.468Z,100.00
2023-04-21T01:39:01.828Z,100.00
2023-04-21T01:41:32.939Z,100.00
2023-04-21T01:44:02.711Z,100.00
2023-04-21T01:46:34.177Z,100.00
2023-04-21T01:49:04.099Z,100.00
2023-04-21T01:51:36.164Z,100.00
2023-04-21T01:54:08.623Z,100.00
2023-04-21T01:56:38.439Z,100.00
2023-04-21T01:59:08.224Z,100.00
2023-04-21T02:01:38.370Z,100.00
2023-04-21T02:04:08.581Z,100.00
2023-04-21T02:06:38.565Z,100.00
2023-04-21T02:09:12.446Z,100.00
2023-04-21T02:11:42.529Z,100.00
2023-04-21T02:14:12.352Z,100.00
2023-04-21T02:16:43.582Z,100.00
2023-04-21T02:19:13.374Z,100.00
2023-04-21T02:21:43.094Z,100.00
2023-04-21T02:24:15.514Z,100.00
2023-04-21T02:26:45.407Z,100.00
2023-04-21T02:29:15.186Z,100.00
2023-04-21T02:31:58.850Z,100.00
2023-04-21T02:34:33.043Z,100.00
2023-04-21T02:37:02.781Z,100.00
2023-04-21T02:39:35.077Z,100.00
2023-04-21T02:42:04.875Z,100.00
2023-04-21T02:44:34.611Z,100.00
2023-04-21T02:47:04.350Z,100.00
2023-04-21T02:49:34.071Z,100.00
2023-04-21T02:52:03.771Z,100.00
2023-04-21T02:54:36.129Z,100.00
2023-04-21T02:57:06.300Z,100.00
2023-04-21T02:59:36.466Z,100.00
2023-04-21T03:02:06.508Z,100.00
2023-04-21T03:04:36.463Z,100.00
2023-04-21T03:07:07.362Z,100.00
2023-04-21T03:09:39.676Z,100.00
2023-04-21T03:12:09.719Z,100.00
2023-04-21T03:14:39.471Z,100.00
2023-04-21T03:17:09.855Z,100.00
2023-04-21T03:19:39.611Z,100.00
2023-04-21T03:22:09.704Z,100.00
2023-04-21T03:24:42.019Z,100.00
2023-04-21T03:27:11.775Z,100.00
2023-04-21T03:29:41.630Z,100.00
2023-04-21T03:32:11.546Z,100.00
2023-04-21T03:34:41.357Z,100.00
2023-04-21T03:37:12.001Z,100.00
2023-04-21T03:39:44.346Z,100.00
2023-04-21T03:42:14.442Z,100.00
2023-04-21T03:44:44.245Z,100.00
2023-04-21T03:47:13.990Z,100.00
2023-04-21T03:49:43.704Z,100.00
2023-04-21T03:52:13.425Z,100.00
2023-04-21T03:54:45.735Z,100.00
2023-04-21T03:57:16.072Z,100.00
2023-04-21T03:59:46.657Z,100.00
2023-04-21T04:02:16.458Z,100.00
2023-04-21T04:04:46.322Z,100.00
2023-04-21T04:07:17.767Z,100.00
2023-04-21T04:09:50.071Z,100.00
2023-04-21T04:12:19.785Z,100.00
2023-04-21T04:14:49.528Z,100.00
2023-04-21T04:17:19.284Z,100.00
2023-04-21T04:19:48.987Z,100.00
2023-04-21T04:22:19.427Z,100.00
2023-04-21T04:24:51.769Z,100.00
2023-04-21T04:27:21.660Z,100.00
2023-04-21T04:29:51.658Z,100.00
2023-04-21T04:32:21.929Z,100.00
2023-04-21T04:34:52.515Z,100.00
2023-04-21T04:37:22.229Z,100.00
2023-04-21T04:39:56.773Z,100.00
2023-04-21T04:42:26.733Z,100.00
2023-04-21T04:44:57.506Z,100.00
2023-04-21T04:47:27.358Z,100.00
2023-04-21T04:49:57.112Z,100.00
2023-04-21T04:52:27.056Z,100.00
2023-04-21T04:54:59.381Z,100.00
2023-04-21T04:57:29.115Z,100.00
2023-04-21T04:59:59.023Z,100.00
2023-04-21T05:02:28.932Z,100.00
2023-04-21T05:04:59.272Z,100.00
2023-04-21T05:07:29.046Z,100.00
2023-04-21T05:10:01.444Z,100.00
2023-04-21T05:12:31.227Z,100.00
2023-04-21T05:15:01.108Z,100.00
2023-04-21T05:17:31.412Z,100.00
2023-04-21T05:20:01.301Z,100.00
2023-04-21T05:22:31.217Z,100.00
2023-04-21T05:25:03.518Z,100.00
2023-04-21T05:27:34.171Z,100.00
2023-04-21T05:30:03.886Z,100.00
2023-04-21T05:32:34.311Z,100.00
2023-04-21T05:35:04.296Z,100.00
2023-04-21T05:37:34.031Z,100.00
2023-04-21T05:40:06.784Z,100.00
2023-04-21T05:42:36.569Z,100.00
2023-04-21T05:45:07.537Z,100.00
2023-04-21T05:47:37.644Z,100.00
2023-04-21T05:50:08.118Z,100.00
2023-04-21T05:52:38.141Z,100.00
2023-04-21T05:55:10.856Z,100.00
2023-04-21T05:57:40.561Z,100.00
2023-04-21T06:00:12.016Z,100.00
2023-04-21T06:02:41.967Z,100.00
2023-04-21T06:05:11.804Z,99.97
2023-04-21T06:07:41.728Z,98.89
2023-04-21T06:10:16.187Z,97.84
2023-04-21T06:12:46.038Z,97.07
2023-04-21T06:15:15.874Z,96.12
2023-04-21T06:17:45.627Z,94.82
2023-04-21T06:20:15.630Z,94.20
2023-04-21T06:22:45.351Z,92.70
2023-04-21T06:25:17.753Z,91.24
2023-04-21T06:27:48.278Z,90.42
2023-04-21T06:30:18.424Z,89.43
2023-04-21T06:32:48.828Z,89.96
2023-04-21T06:35:20.683Z,87.90
2023-04-21T06:37:50.518Z,88.35
2023-04-21T06:40:22.981Z,85.93
2023-04-21T06:42:52.731Z,87.03
2023-04-21T06:45:22.672Z,86.92
2023-04-21T06:47:52.427Z,86.08
2023-04-21T06:50:22.190Z,86.33
2023-04-21T06:52:51.940Z,85.58
2023-04-21T06:55:24.334Z,84.58
2023-04-21T06:57:54.079Z,84.98
2023-04-21T07:00:23.837Z,85.13
2023-04-21T07:02:53.720Z,85.31
2023-04-21T07:05:23.530Z,85.17
2023-04-21T07:07:53.694Z,85.57
2023-04-21T07:10:26.184Z,85.16
2023-04-21T07:12:56.041Z,87.61
2023-04-21T07:15:25.886Z,87.16
2023-04-21T07:17:55.786Z,88.30
2023-04-21T07:20:25.510Z,86.50
2023-04-21T07:22:55.274Z,86.86
2023-04-21T07:25:27.623Z,87.01
2023-04-21T07:27:57.384Z,86.37
2023-04-21T07:30:27.328Z,86.25
2023-04-21T07:32:57.157Z,86.46
2023-04-21T07:35:27.012Z,86.18
2023-04-21T07:37:57.044Z,85.95
2023-04-21T07:40:30.682Z,86.83
2023-04-21T07:43:00.440Z,86.26
2023-04-21T07:45:30.161Z,85.17
2023-04-21T07:47:59.924Z,85.93
2023-04-21T07:50:29.855Z,84.55
2023-04-21T07:52:59.637Z,85.55
2023-04-21T07:55:32.511Z,84.82
2023-04-21T07:58:02.315Z,83.93
2023-04-21T08:00:32.048Z,84.63
2023-04-21T08:03:01.927Z,84.58
2023-04-21T08:05:35.030Z,84.62
2023-04-21T08:08:08.108Z,83.91
2023-04-21T08:10:40.423Z,83.84
2023-04-21T08:13:10.729Z,83.59
2023-04-21T08:15:40.569Z,83.78
2023-04-21T08:18:11.685Z,81.83
2023-04-21T08:20:41.489Z,81.48
2023-04-21T08:23:11.260Z,81.72
2023-04-21T08:25:43.695Z,81.54
2023-04-21T08:28:14.356Z,81.20
2023-04-21T08:30:44.390Z,79.39
2023-04-21T08:33:14.210Z,79.72
2023-04-21T08:35:59.161Z,79.36
2023-04-21T08:38:31.388Z,79.20
2023-04-21T08:41:06.418Z,77.84
2023-04-21T08:43:36.189Z,78.97
2023-04-21T08:46:10.084Z,77.57
2023-04-21T08:48:40.841Z,76.72
2023-04-21T08:51:12.438Z,76.40
2023-04-21T08:53:44.856Z,77.30
2023-04-21T08:56:17.203Z,75.82
2023-04-21T08:58:47.000Z,74.39
2023-04-21T09:01:16.940Z,72.32
2023-04-21T09:03:47.211Z,73.03
2023-04-21T09:06:17.467Z,71.40
2023-04-21T09:08:56.738Z,71.67
2023-04-21T09:11:29.097Z,71.95
2023-04-21T09:14:00.755Z,71.26
2023-04-21T09:16:36.042Z,71.64
2023-04-21T09:19:05.816Z,70.63
2023-04-21T09:21:35.558Z,68.25
2023-04-21T09:24:08.885Z,69.36
2023-04-21T09:26:41.964Z,69.49
2023-04-21T09:29:12.182Z,67.13
2023-04-21T09:31:42.125Z,66.03
2023-04-21T09:34:21.808Z,66.83
2023-04-21T09:36:52.135Z,67.47
2023-04-21T09:39:40.475Z,67.26
2023-04-21T09:42:18.190Z,66.17
2023-04-21T09:44:56.308Z,66.43
2023-04-21T09:47:42.891Z,64.07
2023-04-21T09:50:16.374Z,63.85
2023-04-21T09:52:48.906Z,63.79
2023-04-21T09:55:20.132Z,64.30
2023-04-21T09:57:54.830Z,62.89
2023-04-21T10:00:28.821Z,62.70
2023-04-21T10:03:01.270Z,62.09
2023-04-21T10:05:32.066Z,61.40
2023-04-21T10:08:02.033Z,61.21
2023-04-21T10:10:34.399Z,61.06
2023-04-21T10:13:07.696Z,60.08
2023-04-21T10:15:41.433Z,56.37
2023-04-21T10:18:16.255Z,57.57
2023-04-21T10:20:59.564Z,55.96
2023-04-21T10:23:34.186Z,56.24
2023-04-21T10:26:09.634Z,56.84
2023-04-21T10:28:47.084Z,55.22
2023-04-21T10:31:21.532Z,54.77
2023-04-21T10:34:15.837Z,54.66
2023-04-21T10:36:50.219Z,54.64
2023-04-21T10:39:30.541Z,54.93
2023-04-21T10:42:01.487Z,54.68
2023-04-21T10:44:34.229Z,53.24
2023-04-21T10:47:04.001Z,54.55
2023-04-21T10:49:33.805Z,54.66
2023-04-21T10:52:08.374Z,52.79
2023-04-21T10:54:46.145Z,52.31
2023-04-21T10:57:17.931Z,52.28
2023-04-21T10:59:51.184Z,51.19
2023-04-21T11:02:22.177Z,51.24
2023-04-21T11:04:54.528Z,50.88
2023-04-21T11:07:25.752Z,50.79
2023-04-21T11:10:00.525Z,49.64
2023-04-21T11:12:32.164Z,48.46
2023-04-21T11:15:07.597Z,48.94
2023-04-21T11:17:39.407Z,47.53
2023-04-21T11:20:10.931Z,47.78
2023-04-21T11:22:40.903Z,48.72
2023-04-21T11:25:20.112Z,49.13
2023-04-21T11:27:57.515Z,47.46
2023-04-21T11:30:36.999Z,46.45
2023-04-21T11:33:07.117Z,46.89
2023-04-21T11:35:43.722Z,45.85
2023-04-21T11:38:14.989Z,46.02
2023-04-21T11:40:49.372Z,44.06
2023-04-21T11:43:19.344Z,45.58
2023-04-21T11:45:54.227Z,44.53
2023-04-21T11:48:24.007Z,43.14
2023-04-21T11:50:53.861Z,45.07
2023-04-21T11:53:24.026Z,44.95
2023-04-21T11:55:57.074Z,44.27
2023-04-21T11:58:27.052Z,43.72
2023-04-21T12:00:59.403Z,43.58
2023-04-21T12:03:29.463Z,42.84
2023-04-21T12:06:00.133Z,44.58
2023-04-21T12:08:32.521Z,42.46
2023-04-21T12:11:03.037Z,42.69
2023-04-21T12:13:33.278Z,43.43
2023-04-21T12:16:08.911Z,43.10
2023-04-21T12:18:39.174Z,42.31
2023-04-21T12:21:09.193Z,42.01
2023-04-21T12:23:39.380Z,42.14
2023-04-21T12:26:09.206Z,43.38
2023-04-21T12:28:39.106Z,42.73
2023-04-21T12:31:11.589Z,41.19
2023-04-21T12:33:41.909Z,41.49
2023-04-21T12:36:11.731Z,41.57
2023-04-21T12:38:41.782Z,41.67
2023-04-21T12:41:11.534Z,41.84
2023-04-21T12:43:41.283Z,40.88
2023-04-21T12:46:13.707Z,41.40
2023-04-21T12:48:43.581Z,41.09
2023-04-21T12:51:13.331Z,41.76
2023-04-21T12:53:43.144Z,41.71
2023-04-21T12:56:13.240Z,42.22
2023-04-21T12:58:43.078Z,41.20
2023-04-21T13:01:16.268Z,43.36
2023-04-21T13:03:46.149Z,42.02
2023-04-21T13:06:16.164Z,41.00
2023-04-21T13:08:45.907Z,41.67
2023-04-21T13:11:15.685Z,40.78
2023-04-21T13:13:45.401Z,40.57
2023-04-21T13:16:18.398Z,40.69
2023-04-21T13:18:48.925Z,40.80
2023-04-21T13:21:18.718Z,39.85
2023-04-21T13:23:48.576Z,39.79
2023-04-21T13:26:18.815Z,40.79
2023-04-21T13:28:48.606Z,39.39
2023-04-21T13:31:21.135Z,40.17
2023-04-21T13:33:53.027Z,40.11
2023-04-21T13:36:23.683Z,40.74
2023-04-21T13:38:54.131Z,39.98
2023-04-21T13:41:23.884Z,40.14
2023-04-21T13:43:53.605Z,39.51
2023-04-21T13:46:25.952Z,39.84
2023-04-21T13:48:55.743Z,40.72
2023-04-21T13:51:25.626Z,40.04
2023-04-21T13:53:55.360Z,39.79
2023-04-21T13:56:25.653Z,39.90
2023-04-21T13:58:55.396Z,40.07
2023-04-21T14:01:27.951Z,39.51
2023-04-21T14:03:57.866Z,40.42
2023-04-21T14:06:28.122Z,40.91
2023-04-21T14:08:57.876Z,40.15
2023-04-21T14:11:27.669Z,40.55
2023-04-21T14:14:09.114Z,40.63
2023-04-21T14:16:42.281Z,40.99
2023-04-21T14:19:12.057Z,41.46
2023-04-21T14:21:41.759Z,40.74
2023-04-21T14:24:11.913Z,40.49
2023-04-21T14:26:41.652Z,40.81
2023-04-21T14:29:11.395Z,40.68
2023-04-21T14:31:43.799Z,41.15
2023-04-21T14:34:13.650Z,40.68
2023-04-21T14:36:43.556Z,41.68
2023-04-21T14:39:13.296Z,41.47
2023-04-21T14:41:43.024Z,41.89
2023-04-21T14:44:12.873Z,41.90
2023-04-21T14:46:53.336Z,42.66
2023-04-21T14:49:31.500Z,42.45
2023-04-21T14:52:01.467Z,41.32
2023-04-21T14:54:31.237Z,42.24
2023-04-21T14:57:17.561Z,41.97
2023-04-21T14:59:48.333Z,41.74
2023-04-21T15:02:22.040Z,40.95
2023-04-21T15:04:52.776Z,41.63
2023-04-21T15:07:24.858Z,42.30
2023-04-21T15:09:55.644Z,41.85
2023-04-21T15:12:25.506Z,41.53
2023-04-21T15:14:55.301Z,41.29
2023-04-21T15:17:27.723Z,41.92
2023-04-21T15:19:57.477Z,41.64
2023-04-21T15:22:27.475Z,42.23
2023-04-21T15:24:57.334Z,42.04
2023-04-21T15:27:27.064Z,42.88
2023-04-21T15:29:56.941Z,42.79
2023-04-21T15:32:29.396Z,42.50
2023-04-21T15:34:59.163Z,42.80
2023-04-21T15:37:28.927Z,42.79
2023-04-21T15:39:58.897Z,42.72
2023-04-21T15:42:28.798Z,42.84
2023-04-21T15:44:58.698Z,42.40
2023-04-21T15:47:32.138Z,42.76
2023-04-21T15:50:02.003Z,42.46
2023-04-21T15:52:31.945Z,42.52
2023-04-21T15:55:01.708Z,42.84
2023-04-21T15:57:31.555Z,42.56
2023-04-21T16:00:01.343Z,41.82
2023-04-21T16:02:34.100Z,42.71
2023-04-21T16:05:04.272Z,43.58
2023-04-21T16:07:34.436Z,43.37
2023-04-21T16:10:04.378Z,42.34
2023-04-21T16:12:34.161Z,42.70
2023-04-21T16:15:20.152Z,42.86
2023-04-21T16:17:55.888Z,42.71
2023-04-21T16:20:25.685Z,43.78
2023-04-21T16:22:55.446Z,43.89
2023-04-21T16:25:25.221Z,43.71
2023-04-21T16:27:55.245Z,43.17
2023-04-21T16:30:25.162Z,42.23
2023-04-21T16:32:57.436Z,43.40
2023-04-21T16:35:27.337Z,44.35
2023-04-21T16:37:57.376Z,44.04
2023-04-21T16:40:27.803Z,43.06
2023-04-21T16:42:57.619Z,43.08
2023-04-21T16:45:27.412Z,42.60
2023-04-21T16:48:00.173Z,43.48
2023-04-21T16:50:30.271Z,43.24
2023-04-21T16:52:59.999Z,43.24
2023-04-21T16:55:31.585Z,43.34
2023-04-21T16:58:02.203Z,43.30
2023-04-21T17:00:32.105Z,42.89
2023-04-21T17:03:04.636Z,43.31
2023-04-21T17:05:34.478Z,43.36
2023-04-21T17:08:05.590Z,44.00
2023-04-21T17:10:35.492Z,43.61
2023-04-21T17:13:06.243Z,44.52
2023-04-21T17:15:36.277Z,43.17
2023-04-21T17:18:08.793Z,44.37
2023-04-21T17:20:38.737Z,44.56
2023-04-21T17:23:08.481Z,44.07
2023-04-21T17:25:38.324Z,44.39
2023-04-21T17:28:08.503Z,44.69
2023-04-21T17:30:38.704Z,44.59
2023-04-21T17:33:17.002Z,44.89
2023-04-21T17:36:02.098Z,44.64
2023-04-21T17:38:32.462Z,44.81
2023-04-21T17:41:03.117Z,44.91
2023-04-21T17:43:32.877Z,45.17
2023-04-21T17:46:02.713Z,44.90
2023-04-21T17:48:35.084Z,45.09
2023-04-21T17:51:04.855Z,45.37
2023-04-21T17:53:34.853Z,45.67
2023-04-21T17:56:04.774Z,45.84
2023-04-21T17:58:34.800Z,45.95
2023-04-21T18:01:04.556Z,46.54
2023-04-21T18:03:41.453Z,46.31
2023-04-21T18:06:16.073Z,46.82
2023-04-21T18:08:46.020Z,46.77
2023-04-21T18:11:16.162Z,46.40
2023-04-21T18:13:45.954Z,46.83
2023-04-21T18:16:15.767Z,46.73
2023-04-21T18:18:48.119Z,47.19
2023-04-21T18:21:17.897Z,46.98
2023-04-21T18:23:47.783Z,47.38
2023-04-21T18:26:17.566Z,47.25
2023-04-21T18:28:47.405Z,47.57
2023-04-21T18:31:17.588Z,47.96
2023-04-21T18:33:50.299Z,48.02
2023-04-21T18:36:20.222Z,48.53
2023-04-21T18:38:50.488Z,48.49
2023-04-21T18:41:20.513Z,48.81
2023-04-21T18:43:50.542Z,48.73
2023-04-21T18:46:20.334Z,48.83
2023-04-21T18:48:53.391Z,49.23
2023-04-21T18:51:23.131Z,49.45
2023-04-21T18:53:52.905Z,49.34
2023-04-21T18:56:22.618Z,49.47
2023-04-21T18:58:52.336Z,49.18
2023-04-21T19:01:22.154Z,50.03
2023-04-21T19:03:54.951Z,50.00
2023-04-21T19:06:24.785Z,50.24
2023-04-21T19:08:55.138Z,49.67
2023-04-21T19:11:24.865Z,49.99
2023-04-21T19:13:54.706Z,50.26
2023-04-21T19:16:24.510Z,50.14
2023-04-21T19:18:57.226Z,50.04
2023-04-21T19:21:26.983Z,50.35
2023-04-21T19:23:57.907Z,50.49
2023-04-21T19:26:27.942Z,50.12
2023-04-21T19:28:57.736Z,50.56
2023-04-21T19:31:28.381Z,50.63
2023-04-21T19:34:00.799Z,50.85
2023-04-21T19:36:31.626Z,51.01
2023-04-21T19:39:01.838Z,50.96
2023-04-21T19:41:31.888Z,50.77
2023-04-21T19:44:01.759Z,50.73
2023-04-21T19:46:32.369Z,51.37
2023-04-21T19:49:04.719Z,50.92
2023-04-21T19:51:34.541Z,51.61
2023-04-21T19:54:11.266Z,51.44
2023-04-21T19:56:42.267Z,51.30
2023-04-21T19:59:12.026Z,51.43
2023-04-21T20:01:41.786Z,50.91
2023-04-21T20:04:14.265Z,51.14
2023-04-21T20:06:44.355Z,50.91
2023-04-21T20:09:14.133Z,51.13
2023-04-21T20:11:43.938Z,51.12
2023-04-21T20:14:14.063Z,50.88
2023-04-21T20:16:46.176Z,50.87
2023-04-21T20:19:19.062Z,51.06
2023-04-21T20:21:49.923Z,50.94
2023-04-21T20:24:19.690Z,51.31
2023-04-21T20:26:49.452Z,51.26
2023-04-21T20:29:19.241Z,50.92
2023-04-21T20:31:48.979Z,51.13
2023-04-21T20:34:21.364Z,50.80
2023-04-21T20:36:51.786Z,51.31
2023-04-21T20:39:21.618Z,50.84
2023-04-21T20:42:04.704Z,51.32
2023-04-21T20:44:42.855Z,51.62
2023-04-21T20:47:13.431Z,51.24
2023-04-21T20:49:47.610Z,51.42
2023-04-21T20:52:18.206Z,51.57
2023-04-21T20:54:47.934Z,51.55
2023-04-21T20:57:18.210Z,51.74
2023-04-21T20:59:48.013Z,51.77
2023-04-21T21:02:17.833Z,51.98
2023-04-21T21:04:50.350Z,51.97
2023-04-21T21:07:20.125Z,52.17
2023-04-21T21:09:49.864Z,52.21
2023-04-21T21:12:19.677Z,52.50
2023-04-21T21:14:49.493Z,52.65
2023-04-21T21:17:19.351Z,52.81
2023-04-21T21:19:51.845Z,52.85
2023-04-21T21:22:21.569Z,53.28
2023-04-21T21:24:51.424Z,52.98
2023-04-21T21:27:21.372Z,53.15
2023-04-21T21:29:51.620Z,53.42
2023-04-21T21:32:21.534Z,53.38
2023-04-21T21:34:53.953Z,53.58
2023-04-21T21:37:24.594Z,54.03
2023-04-21T21:39:55.473Z,53.93
2023-04-21T21:42:25.404Z,53.89
2023-04-21T21:44:55.533Z,54.43
2023-04-21T21:47:25.339Z,54.55
2023-04-21T21:49:59.095Z,54.69
2023-04-21T21:52:29.037Z,54.58
2023-04-21T21:54:58.930Z,54.95
2023-04-21T21:57:28.811Z,54.79
2023-04-21T22:00:00.556Z,55.12
2023-04-21T22:02:30.561Z,55.10
2023-04-21T22:05:04.573Z,54.95
2023-04-21T22:07:35.604Z,55.20
2023-04-21T22:10:05.700Z,55.28
2023-04-21T22:12:35.677Z,55.29
2023-04-21T22:15:07.102Z,55.28
2023-04-21T22:17:38.129Z,55.47
2023-04-21T22:20:12.316Z,55.58
2023-04-21T22:22:42.112Z,54.11
2023-04-21T22:25:13.570Z,54.93
2023-04-21T22:27:43.393Z,55.50
2023-04-21T22:30:14.137Z,55.39
2023-04-21T22:32:43.920Z,56.14
2023-04-21T22:35:16.361Z,56.38
2023-04-21T22:37:46.129Z,56.79
2023-04-21T22:40:16.250Z,56.98
2023-04-21T22:42:46.043Z,57.17
2023-04-21T22:45:15.953Z,57.71
2023-04-21T22:47:45.769Z,58.26
2023-04-21T22:50:18.296Z,58.59
2023-04-21T22:52:48.184Z,59.84
2023-04-21T22:55:18.000Z,59.93
2023-04-21T22:57:47.799Z,60.40
2023-04-21T23:00:17.862Z,60.75
2023-04-21T23:02:47.934Z,61.54
2023-04-21T23:05:20.508Z,62.06
2023-04-21T23:07:50.308Z,61.69
2023-04-21T23:10:20.303Z,61.81
2023-04-21T23:12:50.018Z,61.98
2023-04-21T23:15:19.828Z,62.24
2023-04-21T23:17:49.615Z,62.40
2023-04-21T23:20:22.266Z,60.69
2023-04-21T23:22:52.366Z,61.95
2023-04-21T23:25:22.321Z,62.62
2023-04-21T23:27:52.141Z,63.48
2023-04-21T23:30:21.989Z,63.99
2023-04-21T23:32:51.848Z,64.09
2023-04-21T23:35:24.252Z,64.27
2023-04-21T23:37:54.012Z,64.61
2023-04-21T23:40:23.791Z,64.91
2023-04-21T23:42:53.686Z,65.34
2023-04-21T23:45:23.703Z,65.31
2023-04-21T23:47:53.490Z,65.29
2023-04-21T23:50:25.898Z,65.82
2023-04-21T23:52:56.092Z,65.79
2023-04-21T23:55:26.028Z,65.67
2023-04-21T23:57:55.847Z,66.22
